createdAt,value
2022-11-17T00:01:09.523Z,-0.87
2022-11-17T00:03:40.135Z,-0.81
2022-11-17T00:06:07.939Z,-0.81
2022-11-17T00:08:35.596Z,-0.98
2022-11-17T00:11:04.313Z,-0.89
2022-11-17T00:13:32.158Z,-1.00
2022-11-17T00:16:00.063Z,-0.93
2022-11-17T00:18:27.263Z,-1.11
2022-11-17T00:20:54.092Z,-1.14
2022-11-17T00:23:21.166Z,-1.16
2022-11-17T00:25:48.279Z,-1.39
2022-11-17T00:28:15.681Z,-1.13
2022-11-17T00:30:45.160Z,-1.14
2022-11-17T00:33:12.260Z,-1.19
2022-11-17T00:35:39.175Z,-1.20
2022-11-17T00:38:05.975Z,-1.50
2022-11-17T00:40:32.866Z,-1.38
2022-11-17T00:42:59.823Z,-1.12
2022-11-17T00:45:26.620Z,-1.49
2022-11-17T00:47:53.443Z,-1.16
2022-11-17T00:50:20.336Z,-1.38
2022-11-17T00:52:47.270Z,-1.30
2022-11-17T00:55:14.383Z,-1.22
2022-11-17T00:57:41.404Z,-1.39
2022-11-17T01:00:09.268Z,-1.23
2022-11-17T01:02:36.355Z,-1.28
2022-11-17T01:05:05.706Z,-1.05
2022-11-17T01:07:32.811Z,-1.34
2022-11-17T01:09:59.807Z,-1.27
2022-11-17T01:12:26.624Z,-1.31
2022-11-17T01:14:53.442Z,-1.47
2022-11-17T01:17:20.251Z,-1.06
2022-11-17T01:19:49.256Z,-1.37
2022-11-17T01:22:16.150Z,-1.17
2022-11-17T01:24:43.070Z,-1.40
2022-11-17T01:27:09.981Z,-1.26
2022-11-17T01:29:36.950Z,-1.26
2022-11-17T01:32:03.888Z,-1.26
2022-11-17T01:34:30.836Z,-1.30
2022-11-17T01:36:57.756Z,-1.05
2022-11-17T01:39:26.764Z,-1.13
2022-11-17T01:41:54.975Z,-1.28
2022-11-17T01:44:56.005Z,-1.19
2022-11-17T01:47:29.349Z,-1.04
2022-11-17T01:50:05.391Z,-1.08
2022-11-17T01:52:36.187Z,-1.06
2022-11-17T01:55:04.290Z,-1.12
2022-11-17T01:57:39.259Z,-1.04
2022-11-17T02:00:09.934Z,-0.96
2022-11-17T02:02:39.812Z,-0.97
2022-11-17T02:05:30.284Z,-0.96
2022-11-17T02:08:01.198Z,-0.91
2022-11-17T02:10:31.725Z,-0.90
2022-11-17T02:13:00.713Z,-0.83
2022-11-17T02:15:29.258Z,-0.81
2022-11-17T02:17:57.736Z,-0.75
2022-11-17T02:20:36.665Z,-0.60
2022-11-17T02:23:28.894Z,-0.70
2022-11-17T02:26:04.574Z,-0.76
2022-11-17T02:28:56.183Z,-0.78
2022-11-17T02:31:26.951Z,-0.63
2022-11-17T02:33:59.941Z,-0.67
2022-11-17T02:36:55.861Z,-0.66
2022-11-17T02:39:30.975Z,-0.91
2022-11-17T02:42:04.062Z,-0.81
2022-11-17T02:44:34.006Z,-0.79
2022-11-17T02:47:25.501Z,-0.77
2022-11-17T02:50:13.370Z,-0.84
2022-11-17T02:52:40.564Z,-0.74
2022-11-17T02:55:10.287Z,-0.82
2022-11-17T02:57:40.282Z,-0.75
2022-11-17T03:00:14.202Z,-0.94
2022-11-17T03:02:59.555Z,-0.93
2022-11-17T03:05:38.617Z,-0.98
2022-11-17T03:08:32.636Z,-0.81
2022-11-17T03:11:06.888Z,-1.08
2022-11-17T03:13:39.730Z,-1.00
2022-11-17T03:16:18.663Z,-1.11
2022-11-17T03:19:17.011Z,-0.89
2022-11-17T03:22:02.363Z,-1.03
2022-11-17T03:24:33.788Z,-1.11
2022-11-17T03:27:07.998Z,-1.13
2022-11-17T03:29:40.215Z,-1.02
2022-11-17T03:32:09.823Z,-0.77
2022-11-17T03:34:44.253Z,-1.10
2022-11-17T03:37:15.268Z,-1.17
2022-11-17T03:39:46.988Z,-0.95
2022-11-17T03:42:19.879Z,-0.76
2022-11-17T03:44:59.808Z,-0.87
2022-11-17T03:47:29.725Z,-1.17
2022-11-17T03:50:16.899Z,-1.11
2022-11-17T03:52:45.669Z,-1.01
2022-11-17T03:55:13.846Z,-0.99
2022-11-17T03:57:50.350Z,-0.75
2022-11-17T04:00:19.478Z,-0.81
2022-11-17T04:02:54.619Z,-0.65
2022-11-17T04:05:22.217Z,-0.87
2022-11-17T04:07:49.090Z,-0.78
2022-11-17T04:10:18.933Z,-0.89
2022-11-17T04:12:46.950Z,-0.73
2022-11-17T04:15:13.914Z,-1.01
2022-11-17T04:17:40.880Z,-0.65
2022-11-17T04:20:08.629Z,-0.87
2022-11-17T04:22:35.421Z,-0.68
2022-11-17T04:25:02.512Z,-0.47
2022-11-17T04:27:29.335Z,-0.62
2022-11-17T04:29:56.151Z,-0.69
2022-11-17T04:32:23.018Z,-0.77
2022-11-17T04:34:49.933Z,-0.94
2022-11-17T04:37:16.779Z,-0.57
2022-11-17T04:39:44.993Z,-0.89
2022-11-17T04:42:12.512Z,-0.65
2022-11-17T04:44:39.754Z,-0.95
2022-11-17T04:47:06.693Z,-0.84
2022-11-17T04:49:33.832Z,-0.62
2022-11-17T04:52:01.113Z,-0.94
2022-11-17T04:54:28.298Z,-0.68
2022-11-17T04:56:55.923Z,-0.79
2022-11-17T04:59:23.443Z,-0.50
2022-11-17T05:01:50.395Z,-0.40
2022-11-17T05:04:19.542Z,-0.34
2022-11-17T05:06:46.380Z,-0.19
2022-11-17T05:09:16.121Z,-0.44
2022-11-17T05:11:43.731Z,-0.29
2022-11-17T05:14:12.630Z,-0.25
2022-11-17T05:16:39.688Z,-0.29
2022-11-17T05:19:09.787Z,-0.22
2022-11-17T05:21:36.948Z,-0.39
2022-11-17T05:24:04.004Z,-0.28
2022-11-17T05:26:33.666Z,-0.34
2022-11-17T05:29:02.529Z,-0.62
2022-11-17T05:31:30.235Z,-0.59
2022-11-17T05:33:57.751Z,-0.38
2022-11-17T05:36:25.741Z,-0.40
2022-11-17T05:38:53.319Z,-0.23
2022-11-17T05:41:20.682Z,-0.26
2022-11-17T05:43:47.994Z,-0.40
2022-11-17T05:46:14.839Z,-0.33
2022-11-17T05:48:41.829Z,-0.44
2022-11-17T05:51:09.926Z,-0.20
2022-11-17T05:53:37.070Z,-0.27
2022-11-17T05:56:24.465Z,-0.19
2022-11-17T05:58:58.522Z,-0.35
2022-11-17T06:01:26.918Z,-0.31
2022-11-17T06:03:57.447Z,-0.09
2022-11-17T06:06:24.683Z,0.09
2022-11-17T06:08:51.793Z,-0.15
2022-11-17T06:11:18.800Z,-0.07
2022-11-17T06:13:45.692Z,0.07
2022-11-17T06:16:17.753Z,0.03
2022-11-17T06:18:54.932Z,-0.12
2022-11-17T06:21:22.377Z,-0.08
2022-11-17T06:23:51.022Z,0.12
2022-11-17T06:26:18.082Z,0.09
2022-11-17T06:28:49.345Z,0.06
2022-11-17T06:31:17.224Z,0.23
2022-11-17T06:33:45.260Z,0.40
2022-11-17T06:36:13.612Z,0.22
2022-11-17T06:38:40.456Z,0.26
2022-11-17T06:41:11.901Z,0.14
2022-11-17T06:43:39.169Z,0.34
2022-11-17T06:46:06.008Z,0.03
2022-11-17T06:48:33.432Z,0.41
2022-11-17T06:51:00.739Z,0.54
2022-11-17T06:53:27.708Z,0.30
2022-11-17T06:55:54.780Z,0.70
2022-11-17T06:58:22.402Z,0.81
2022-11-17T07:00:49.500Z,0.70
2022-11-17T07:03:16.843Z,0.65
2022-11-17T07:05:43.697Z,0.77
2022-11-17T07:08:10.834Z,0.86
2022-11-17T07:10:38.661Z,0.81
2022-11-17T07:13:06.649Z,1.13
2022-11-17T07:15:33.548Z,1.50
2022-11-17T07:18:00.648Z,1.59
2022-11-17T07:20:27.679Z,1.24
2022-11-17T07:22:58.705Z,0.89
2022-11-17T07:25:25.806Z,1.19
2022-11-17T07:28:00.046Z,1.07
2022-11-17T07:30:27.640Z,1.39
2022-11-17T07:32:55.058Z,1.26
2022-11-17T07:35:22.100Z,1.56
2022-11-17T07:37:49.263Z,1.69
2022-11-17T07:40:16.518Z,1.77
2022-11-17T07:42:49.053Z,1.97
2022-11-17T07:45:17.881Z,1.77
2022-11-17T07:47:44.972Z,1.90
2022-11-17T07:50:12.288Z,1.21
2022-11-17T07:52:41.580Z,0.89
2022-11-17T07:55:09.134Z,1.42
2022-11-17T07:57:41.962Z,1.60
2022-11-17T08:00:09.931Z,1.66
2022-11-17T08:02:41.226Z,1.82
2022-11-17T08:05:08.668Z,1.98
2022-11-17T08:07:35.787Z,2.00
2022-11-17T08:10:02.959Z,1.81
2022-11-17T08:12:30.010Z,1.74
2022-11-17T08:14:57.060Z,1.84
2022-11-17T08:17:24.147Z,1.99
2022-11-17T08:19:51.604Z,2.32
2022-11-17T08:22:18.907Z,2.24
2022-11-17T08:24:46.211Z,2.35
2022-11-17T08:27:13.574Z,2.03
2022-11-17T08:29:40.957Z,1.52
2022-11-17T08:32:08.003Z,1.57
2022-11-17T08:34:35.038Z,1.85
2022-11-17T08:37:02.140Z,1.70
2022-11-17T08:39:29.456Z,1.65
2022-11-17T08:41:56.401Z,1.78
2022-11-17T08:44:23.311Z,1.54
2022-11-17T08:46:50.422Z,1.40
2022-11-17T08:49:17.491Z,1.86
2022-11-17T08:51:44.414Z,1.66
2022-11-17T08:54:12.423Z,1.46
2022-11-17T08:56:39.344Z,1.03
2022-11-17T08:59:06.462Z,1.24
2022-11-17T09:01:33.418Z,1.43
2022-11-17T09:04:00.462Z,1.41
2022-11-17T09:06:27.342Z,1.56
2022-11-17T09:08:55.098Z,1.69
2022-11-17T09:11:22.501Z,1.61
2022-11-17T09:13:49.604Z,1.72
2022-11-17T09:16:17.172Z,1.58
2022-11-17T09:18:45.091Z,1.88
2022-11-17T09:21:16.100Z,1.67
2022-11-17T09:23:44.001Z,1.50
2022-11-17T09:26:13.770Z,0.84
2022-11-17T09:28:41.516Z,1.33
2022-11-17T09:31:12.264Z,1.18
2022-11-17T09:33:39.322Z,1.64
2022-11-17T09:36:06.757Z,1.34
2022-11-17T09:38:34.483Z,1.55
2022-11-17T09:41:20.647Z,1.33
2022-11-17T09:44:29.057Z,1.48
2022-11-17T09:47:21.082Z,1.53
2022-11-17T09:49:58.926Z,1.39
2022-11-17T09:52:53.414Z,1.10
2022-11-17T09:55:34.369Z,1.22
2022-11-17T09:58:13.659Z,1.54
2022-11-17T10:00:43.707Z,1.42
2022-11-17T10:03:27.734Z,1.29
2022-11-17T10:05:56.139Z,1.13
2022-11-17T10:08:38.361Z,1.22
2022-11-17T10:11:12.734Z,1.11
2022-11-17T10:13:41.200Z,0.88
2022-11-17T10:16:14.072Z,0.51
2022-11-17T10:18:41.331Z,0.87
2022-11-17T10:21:09.059Z,0.77
2022-11-17T10:23:46.840Z,0.75
2022-11-17T10:26:16.076Z,0.65
2022-11-17T10:28:44.172Z,0.77
2022-11-17T10:31:20.132Z,0.20
2022-11-17T10:33:50.800Z,0.43
2022-11-17T10:36:29.271Z,0.95
2022-11-17T10:38:58.976Z,0.71
2022-11-17T10:42:05.323Z,0.68
2022-11-17T10:44:41.562Z,0.90
2022-11-17T10:47:30.833Z,0.85
2022-11-17T10:50:21.426Z,0.59
2022-11-17T10:52:54.366Z,0.55
2022-11-17T10:55:24.617Z,0.89
2022-11-17T11:01:10.967Z,0.67
2022-11-17T11:03:48.790Z,0.35
2022-11-17T11:06:30.363Z,0.38
2022-11-17T11:09:16.922Z,0.19
2022-11-17T11:20:42.499Z,0.16
2022-11-17T11:23:29.744Z,0.02
2022-11-17T11:26:02.731Z,0.35
2022-11-17T11:28:46.354Z,0.37
2022-11-17T11:31:24.271Z,0.47
2022-11-17T11:34:00.877Z,0.21
2022-11-17T11:36:27.786Z,0.52
2022-11-17T11:39:23.196Z,0.36
2022-11-17T11:42:14.837Z,-0.06
2022-11-17T11:45:01.944Z,-0.13
2022-11-17T11:48:06.249Z,0.04
2022-11-17T11:50:51.141Z,-0.19
2022-11-17T11:53:24.223Z,-0.56
2022-11-17T11:56:04.685Z,-0.65
2022-11-17T11:58:31.668Z,-0.63
2022-11-17T12:01:08.536Z,-0.49
2022-11-17T12:03:48.625Z,-0.55
2022-11-17T12:06:22.499Z,-0.29
2022-11-17T12:09:06.338Z,-0.60
2022-11-17T12:11:34.825Z,-0.37
2022-11-17T12:14:05.608Z,-0.60
2022-11-17T12:16:36.965Z,-0.52
2022-11-17T12:19:42.315Z,-0.56
2022-11-17T12:22:18.978Z,-0.91
2022-11-17T12:24:46.244Z,-0.80
2022-11-17T12:27:31.924Z,-0.65
2022-11-17T12:29:59.163Z,-0.62
2022-11-17T12:32:44.066Z,-0.69
2022-11-17T12:35:27.681Z,-1.00
2022-11-17T12:38:13.056Z,-0.96
2022-11-17T12:40:39.999Z,-1.12
2022-11-17T12:43:16.020Z,-1.24
2022-11-17T12:45:58.351Z,-1.09
2022-11-17T12:48:35.465Z,-1.26
2022-11-17T12:51:16.631Z,-1.52
2022-11-17T12:54:14.667Z,-1.34
2022-11-17T12:56:50.415Z,-1.36
2022-11-17T12:59:26.834Z,-1.38
2022-11-17T13:02:25.612Z,-1.31
2022-11-17T13:05:01.106Z,-1.47
2022-11-17T13:07:28.212Z,-1.45
2022-11-17T13:09:57.599Z,-1.43
2022-11-17T13:12:31.986Z,-1.51
2022-11-17T13:15:04.901Z,-1.41
2022-11-17T13:17:35.105Z,-1.43
2022-11-17T13:20:29.087Z,-1.37
2022-11-17T13:23:03.925Z,-1.53
2022-11-17T13:25:30.891Z,-1.51
2022-11-17T13:28:04.216Z,-1.49
2022-11-17T13:30:33.519Z,-1.56
2022-11-17T13:33:02.673Z,-1.86
2022-11-17T13:35:32.405Z,-1.92
2022-11-17T13:38:13.747Z,-1.66
2022-11-17T13:40:43.167Z,-1.68
2022-11-17T13:43:37.453Z,-1.73
2022-11-17T13:46:05.106Z,-1.69
2022-11-17T13:48:32.884Z,-1.68
2022-11-17T13:51:27.110Z,-1.71
2022-11-17T13:53:53.970Z,-1.83
2022-11-17T13:56:41.156Z,-1.67
2022-11-17T13:59:25.389Z,-1.67
2022-11-17T14:02:17.017Z,-1.92
2022-11-17T14:05:12.113Z,-1.80
2022-11-17T14:07:40.528Z,-1.93
2022-11-17T14:10:22.685Z,-1.96
2022-11-17T14:13:08.843Z,-1.85
2022-11-17T14:15:39.833Z,-1.94
2022-11-17T14:18:35.964Z,-1.96
2022-11-17T14:21:09.404Z,-1.93
2022-11-17T14:23:36.708Z,-1.81
2022-11-17T14:26:04.095Z,-1.96
2022-11-17T14:28:31.022Z,-1.87
2022-11-17T14:30:58.494Z,-1.91
2022-11-17T14:33:25.697Z,-2.15
2022-11-17T14:35:58.290Z,-1.95
2022-11-17T14:38:25.638Z,-1.88
2022-11-17T14:40:53.752Z,-2.01
2022-11-17T14:43:21.791Z,-1.90
2022-11-17T14:45:50.078Z,-1.80
2022-11-17T14:48:19.323Z,-1.90
2022-11-17T14:50:47.515Z,-1.72
2022-11-17T14:53:14.718Z,-1.92
2022-11-17T14:55:41.665Z,-2.03
2022-11-17T14:58:08.626Z,-1.99
2022-11-17T15:00:35.511Z,-1.73
2022-11-17T15:03:02.526Z,-2.03
2022-11-17T15:05:29.551Z,-2.02
2022-11-17T15:07:56.887Z,-1.84
2022-11-17T15:10:23.770Z,-1.73
2022-11-17T15:12:50.874Z,-2.14
2022-11-17T15:15:17.903Z,-1.84
2022-11-17T15:17:45.067Z,-1.95
2022-11-17T15:20:12.363Z,-1.90
2022-11-17T15:22:39.470Z,-1.73
2022-11-17T15:25:07.183Z,-1.97
2022-11-17T15:27:34.168Z,-1.90
2022-11-17T15:30:01.134Z,-1.77
2022-11-17T15:32:28.013Z,-1.69
2022-11-17T15:34:54.934Z,-1.82
2022-11-17T15:37:21.880Z,-1.72
2022-11-17T15:39:48.961Z,-1.97
2022-11-17T15:42:15.927Z,-1.75
2022-11-17T15:44:42.741Z,-1.72
2022-11-17T15:47:09.545Z,-1.92
2022-11-17T15:49:36.550Z,-1.77
2022-11-17T15:52:03.558Z,-1.64
2022-11-17T15:54:30.664Z,-1.69
2022-11-17T15:56:57.777Z,-1.83
2022-11-17T15:59:24.754Z,-1.93
2022-11-17T16:01:51.677Z,-1.87
2022-11-17T16:04:18.665Z,-2.20
2022-11-17T16:06:46.375Z,-1.85
2022-11-17T16:09:14.826Z,-1.89
2022-11-17T16:11:42.198Z,-2.51
2022-11-17T16:14:09.265Z,-1.92
2022-11-17T16:16:38.510Z,-1.83
2022-11-17T16:19:06.377Z,-1.94
2022-11-17T16:21:33.350Z,-1.87
2022-11-17T16:24:00.565Z,-1.96
2022-11-17T16:26:28.854Z,-1.94
2022-11-17T16:29:00.570Z,-1.95
2022-11-17T16:31:30.388Z,-1.83
2022-11-17T16:34:01.466Z,-1.78
2022-11-17T16:36:36.296Z,-1.89
2022-11-17T16:39:06.364Z,-1.85
2022-11-17T16:41:36.197Z,-1.91
2022-11-17T16:44:07.854Z,-1.69
2022-11-17T16:46:35.336Z,-1.80
2022-11-17T16:49:07.171Z,-1.81
2022-11-17T16:51:34.613Z,-1.77
2022-11-17T16:54:04.252Z,-1.77
2022-11-17T16:56:32.732Z,-1.57
2022-11-17T16:58:59.863Z,-1.59
2022-11-17T17:01:29.340Z,-1.70
2022-11-17T17:03:57.573Z,-1.61
2022-11-17T17:06:25.174Z,-1.64
2022-11-17T17:09:04.521Z,-1.77
2022-11-17T17:11:32.933Z,-1.87
2022-11-17T17:14:01.530Z,-1.87
2022-11-17T17:18:58.316Z,-1.79
2022-11-17T17:21:29.173Z,-1.85
2022-11-17T17:23:57.146Z,-1.83
2022-11-17T17:26:26.283Z,-1.93
2022-11-17T17:28:56.296Z,-2.18
2022-11-17T17:31:24.800Z,-2.14
2022-11-17T17:33:54.378Z,-2.06
2022-11-17T17:36:24.404Z,-2.12
2022-11-17T17:38:56.107Z,-2.04
2022-11-17T17:41:27.585Z,-1.97
2022-11-17T17:43:57.319Z,-2.11
2022-11-17T17:46:25.679Z,-2.02
2022-11-17T17:48:52.791Z,-2.22
2022-11-17T17:51:21.409Z,-2.20
2022-11-17T17:53:48.358Z,-2.07
2022-11-17T17:56:15.984Z,-2.05
2022-11-17T17:58:43.094Z,-2.04
2022-11-17T18:01:13.144Z,-2.21
2022-11-17T18:03:41.808Z,-2.18
2022-11-17T18:06:10.170Z,-2.21
2022-11-17T18:08:37.434Z,-2.27
2022-11-17T18:11:07.911Z,-2.15
2022-11-17T18:13:37.583Z,-2.26
2022-11-17T18:16:06.466Z,-2.27
2022-11-17T18:18:34.425Z,-2.49
2022-11-17T18:21:03.511Z,-2.22
2022-11-17T18:23:31.908Z,-2.41
2022-11-17T18:25:58.865Z,-2.47
2022-11-17T18:28:25.809Z,-2.48
2022-11-17T18:30:52.756Z,-2.51
2022-11-17T18:33:19.759Z,-2.50
2022-11-17T18:35:46.894Z,-2.57
2022-11-17T18:38:13.776Z,-2.42
2022-11-17T18:40:40.815Z,-2.45
2022-11-17T18:43:08.829Z,-2.42
2022-11-17T18:45:39.406Z,-2.57
2022-11-17T18:48:06.436Z,-2.42
2022-11-17T18:50:33.311Z,-2.68
2022-11-17T18:53:00.164Z,-2.58
2022-11-17T18:55:27.138Z,-2.54
2022-11-17T18:57:55.711Z,-2.38
2022-11-17T19:00:22.574Z,-2.37
2022-11-17T19:02:49.507Z,-2.36
2022-11-17T19:05:16.431Z,-2.75
2022-11-17T19:07:43.419Z,-2.50
2022-11-17T19:10:10.589Z,-2.55
2022-11-17T19:12:37.472Z,-2.46
2022-11-17T19:15:04.727Z,-2.48
2022-11-17T19:17:31.616Z,-2.56
2022-11-17T19:19:58.489Z,-2.45
2022-11-17T19:22:25.400Z,-2.71
2022-11-17T19:24:52.281Z,-2.66
2022-11-17T19:27:19.147Z,-2.67
2022-11-17T19:29:46.020Z,-3.00
2022-11-17T19:32:12.921Z,-2.82
2022-11-17T19:34:39.760Z,-2.75
2022-11-17T19:37:06.628Z,-2.64
2022-11-17T19:39:33.666Z,-2.74
2022-11-17T19:42:00.516Z,-2.70
2022-11-17T19:44:28.592Z,-2.71
2022-11-17T19:46:55.500Z,-2.60
2022-11-17T19:49:22.411Z,-2.52
2022-11-17T19:51:49.276Z,-2.54
2022-11-17T19:54:16.183Z,-2.47
2022-11-17T19:56:43.085Z,-2.25
2022-11-17T19:59:15.524Z,-2.35
2022-11-17T20:01:43.468Z,-2.28
2022-11-17T20:04:10.425Z,-2.47
2022-11-17T20:06:38.682Z,-2.49
2022-11-17T20:09:12.068Z,-2.28
2022-11-17T20:11:40.170Z,-2.19
2022-11-17T20:14:07.267Z,-2.42
2022-11-17T20:16:34.592Z,-2.28
2022-11-17T20:19:02.641Z,-2.59
2022-11-17T20:21:30.566Z,-2.23
2022-11-17T20:23:58.403Z,-2.21
2022-11-17T20:26:28.231Z,-2.25
2022-11-17T20:28:55.198Z,-2.15
2022-11-17T20:31:24.538Z,-2.35
2022-11-17T20:33:52.305Z,-2.25
2022-11-17T20:36:21.425Z,-2.21
2022-11-17T20:39:02.220Z,-1.98
2022-11-17T20:41:29.626Z,-2.20
2022-11-17T20:43:58.382Z,-2.10
2022-11-17T20:46:25.934Z,-1.93
2022-11-17T20:48:52.853Z,-2.00
2022-11-17T20:51:21.719Z,-1.78
2022-11-17T20:53:48.633Z,-1.84
2022-11-17T20:56:16.163Z,-1.76
2022-11-17T20:58:43.403Z,-1.71
2022-11-17T21:01:16.411Z,-1.83
2022-11-17T21:03:44.026Z,-1.96
2022-11-17T21:06:11.655Z,-1.76
2022-11-17T21:08:41.005Z,-1.70
2022-11-17T21:11:11.270Z,-1.77
2022-11-17T21:13:38.367Z,-1.89
2022-11-17T21:16:15.436Z,-1.81
2022-11-17T21:18:47.406Z,-1.78
2022-11-17T21:21:15.628Z,-1.78
2022-11-17T21:23:43.789Z,-1.89
2022-11-17T21:26:14.171Z,-1.97
2022-11-17T21:28:41.276Z,-2.05
2022-11-17T21:31:11.889Z,-1.94
2022-11-17T21:33:39.671Z,-1.84
2022-11-17T21:36:12.457Z,-1.86
2022-11-17T21:38:39.465Z,-1.84
2022-11-17T21:41:12.203Z,-1.91
2022-11-17T21:43:40.665Z,-1.76
2022-11-17T21:46:10.155Z,-1.72
2022-11-17T21:48:37.616Z,-1.61
2022-11-17T21:51:06.014Z,-1.77
2022-11-17T21:53:33.098Z,-1.80
2022-11-17T21:56:01.597Z,-1.98
2022-11-17T21:58:28.720Z,-1.70
2022-11-17T22:00:56.057Z,-1.62
2022-11-17T22:03:23.423Z,-1.54
2022-11-17T22:05:52.357Z,-1.53
2022-11-17T22:08:19.631Z,-1.54
2022-11-17T22:10:46.536Z,-1.62
2022-11-17T22:13:13.508Z,-1.71
2022-11-17T22:15:40.440Z,-1.82
2022-11-17T22:18:07.701Z,-1.61
2022-11-17T22:20:34.525Z,-1.37
2022-11-17T22:23:01.571Z,-1.47
2022-11-17T22:25:44.633Z,-1.31
2022-11-17T22:28:12.403Z,-1.35
2022-11-17T22:30:39.367Z,-1.40
2022-11-17T22:33:06.607Z,-1.21
2022-11-17T22:35:33.464Z,-1.19
2022-11-17T22:38:00.411Z,-1.16
2022-11-17T22:40:27.275Z,-1.23
2022-11-17T22:42:54.167Z,-1.30
2022-11-17T22:45:21.016Z,-1.36
2022-11-17T22:47:47.948Z,-1.61
2022-11-17T22:50:14.891Z,-1.48
2022-11-17T22:52:41.857Z,-1.55
2022-11-17T22:55:08.958Z,-1.39
2022-11-17T22:57:35.924Z,-1.26
2022-11-17T23:00:03.006Z,-1.07
2022-11-17T23:02:29.907Z,-1.25
2022-11-17T23:04:56.759Z,-1.35
2022-11-17T23:07:23.811Z,-1.29
2022-11-17T23:09:50.713Z,-1.33
2022-11-17T23:12:17.650Z,-1.12
2022-11-17T23:14:44.519Z,-1.19
2022-11-17T23:17:11.534Z,-1.20
2022-11-17T23:19:38.394Z,-1.16
2022-11-17T23:22:05.407Z,-1.20
2022-11-17T23:24:32.259Z,-1.32
2022-11-17T23:26:59.256Z,-1.25
2022-11-17T23:29:26.195Z,-1.16
2022-11-17T23:31:53.109Z,-1.17
2022-11-17T23:34:19.938Z,-1.30
2022-11-17T23:36:46.863Z,-1.19
2022-11-17T23:39:13.724Z,-1.16
2022-11-17T23:41:40.650Z,-1.12
2022-11-17T23:44:07.483Z,-1.13
2022-11-17T23:46:34.543Z,-1.02
2022-11-17T23:49:01.563Z,-0.97
2022-11-17T23:51:28.536Z,-1.13
2022-11-17T23:53:58.304Z,-1.04
2022-11-17T23:56:25.315Z,-1.01
2022-11-17T23:58:52.508Z,-1.10
